Portada
METAR-TAF:

METAR-TAF

Aeroports :

Shell Mera, Equador

latitud: 01-30-19S, longitud: 078-03-46W, altitud: 1056 m

Observació

L'informe es va fer fa 22 minuts, a les 14:00 UTC
Vent 4 kt del Est/Sud-Est
Temperatura 21°C
Humitat 94%
Pressió 1018 hPa
Visibilitat: 1000 m
Núvols disperses a una alçada de 300 ft
Cel ennuvolat a una alçada de 2300 ft
Cel cobert a una alçada de 8000 ft
pluja

METAR: SESM 141400Z 11004KT 1000 -RA SCT003 BKN023 OVC080 21/20 Q1018 RMK A3008

Hora: 09:22 (14:22 UTC)


TAF: manca

Observacions i pronòstics meteorològics de més de 4000 aeroports (METAR i TAF).

Les estacions disponibles són els punts grocs i vermells al mapa.

Posi el ratolí al punt desitjat per veure el nom de l'estació.

Feu clic per veure les observacions i els pronòstics meteorològics.

Per canviar el mapa: feu clic els botons verds amb una creu de color negre per apropar; al botó verd amb un guió per allunyar la imatge; o en les fletxes verdes per a mapes adjacents.


METAR-TAF: